sensor_id;sensor_type;location;lat;lon;timestamp;temperature;humidity
1626;DHT22;806;48.770;9.156;2023-04-25T00:01:02;9.80;99.90
1626;DHT22;806;48.770;9.156;2023-04-25T00:03:29;9.70;99.90
1626;DHT22;806;48.770;9.156;2023-04-25T00:05:58;9.70;99.90
1626;DHT22;806;48.770;9.156;2023-04-25T00:08:28;9.60;99.90
1626;DHT22;806;48.770;9.156;2023-04-25T00:10:55;9.50;99.90
1626;DHT22;806;48.770;9.156;2023-04-25T00:13:22;9.40;99.90
1626;DHT22;806;48.770;9.156;2023-04-25T00:15:51;9.30;99.90
1626;DHT22;806;48.770;9.156;2023-04-25T00:18:18;9.30;99.90
1626;DHT22;806;48.770;9.156;2023-04-25T00:20:45;9.20;99.90
1626;DHT22;806;48.770;9.156;2023-04-25T00:23:14;9.30;99.90
1626;DHT22;806;48.770;9.156;2023-04-25T00:25:43;9.30;99.90
1626;DHT22;806;48.770;9.156;2023-04-25T00:28:11;9.30;99.90
1626;DHT22;806;48.770;9.156;2023-04-25T00:30:38;9.30;99.90
1626;DHT22;806;48.770;9.156;2023-04-25T00:33:05;9.30;99.90
1626;DHT22;806;48.770;9.156;2023-04-25T00:35:33;9.30;99.90
1626;DHT22;806;48.770;9.156;2023-04-25T00:38:00;9.40;99.90
1626;DHT22;806;48.770;9.156;2023-04-25T00:40:29;9.40;99.90
1626;DHT22;806;48.770;9.156;2023-04-25T00:42:56;9.50;99.90
1626;DHT22;806;48.770;9.156;2023-04-25T00:45:27;9.50;99.90
1626;DHT22;806;48.770;9.156;2023-04-25T00:47:55;9.50;99.90
1626;DHT22;806;48.770;9.156;2023-04-25T00:50:23;9.40;99.90
1626;DHT22;806;48.770;9.156;2023-04-25T00:52:50;9.40;99.90
1626;DHT22;806;48.770;9.156;2023-04-25T00:55:17;9.40;99.90
1626;DHT22;806;48.770;9.156;2023-04-25T00:57:46;9.40;99.90
1626;DHT22;806;48.770;9.156;2023-04-25T01:00:14;9.40;99.90
1626;DHT22;806;48.770;9.156;2023-04-25T01:02:41;9.40;99.90
1626;DHT22;806;48.770;9.156;2023-04-25T01:05:08;9.30;99.90
1626;DHT22;806;48.770;9.156;2023-04-25T01:07:36;9.30;99.90
1626;DHT22;806;48.770;9.156;2023-04-25T01:10:04;9.20;99.90
1626;DHT22;806;48.770;9.156;2023-04-25T01:12:31;9.20;99.90
1626;DHT22;806;48.770;9.156;2023-04-25T01:15:00;9.30;99.90
1626;DHT22;806;48.770;9.156;2023-04-25T01:17:27;9.30;99.90
1626;DHT22;806;48.770;9.156;2023-04-25T01:19:54;9.30;99.90
1626;DHT22;806;48.770;9.156;2023-04-25T01:22:23;9.30;99.90
1626;DHT22;806;48.770;9.156;2023-04-25T01:24:50;9.20;99.90
1626;DHT22;806;48.770;9.156;2023-04-25T01:27:18;9.20;99.90
1626;DHT22;806;48.770;9.156;2023-04-25T01:29:46;9.20;99.90
1626;DHT22;806;48.770;9.156;2023-04-25T01:32:13;9.40;99.90
1626;DHT22;806;48.770;9.156;2023-04-25T01:34:41;9.40;99.90
1626;DHT22;806;48.770;9.156;2023-04-25T01:37:08;9.40;99.90
1626;DHT22;806;48.770;9.156;2023-04-25T01:39:36;9.40;99.90
1626;DHT22;806;48.770;9.156;2023-04-25T01:42:03;9.40;99.90
1626;DHT22;806;48.770;9.156;2023-04-25T01:44:31;9.40;99.90
1626;DHT22;806;48.770;9.156;2023-04-25T01:46:58;9.40;99.90
1626;DHT22;806;48.770;9.156;2023-04-25T01:49:25;9.30;99.90
1626;DHT22;806;48.770;9.156;2023-04-25T01:51:52;9.30;99.90
1626;DHT22;806;48.770;9.156;2023-04-25T01:54:21;9.30;99.90
1626;DHT22;806;48.770;9.156;2023-04-25T01:56:51;9.30;99.90
1626;DHT22;806;48.770;9.156;2023-04-25T01:59:18;9.30;99.90
1626;DHT22;806;48.770;9.156;2023-04-25T02:01:47;9.30;99.90
1626;DHT22;806;48.770;9.156;2023-04-25T02:04:14;9.20;99.90
1626;DHT22;806;48.770;9.156;2023-04-25T02:06:41;9.20;99.90
1626;DHT22;806;48.770;9.156;2023-04-25T02:09:08;9.20;99.90
1626;DHT22;806;48.770;9.156;2023-04-25T02:11:35;9.20;99.90
1626;DHT22;806;48.770;9.156;2023-04-25T02:14:04;9.30;99.90
1626;DHT22;806;48.770;9.156;2023-04-25T02:16:31;9.40;99.90
1626;DHT22;806;48.770;9.156;2023-04-25T02:18:58;9.40;99.90
1626;DHT22;806;48.770;9.156;2023-04-25T02:21:25;9.30;99.90
1626;DHT22;806;48.770;9.156;2023-04-25T02:23:52;9.30;99.90
1626;DHT22;806;48.770;9.156;2023-04-25T02:26:20;9.20;99.90
1626;DHT22;806;48.770;9.156;2023-04-25T02:28:47;9.20;99.90
1626;DHT22;806;48.770;9.156;2023-04-25T02:31:15;9.20;99.90
1626;DHT22;806;48.770;9.156;2023-04-25T02:33:43;9.10;99.90
1626;DHT22;806;48.770;9.156;2023-04-25T02:36:10;9.10;99.90
1626;DHT22;806;48.770;9.156;2023-04-25T02:38:38;9.10;99.90
1626;DHT22;806;48.770;9.156;2023-04-25T02:41:05;9.10;99.90
1626;DHT22;806;48.770;9.156;2023-04-25T02:43:32;9.00;99.90
1626;DHT22;806;48.770;9.156;2023-04-25T02:45:59;9.10;99.90
1626;DHT22;806;48.770;9.156;2023-04-25T02:48:27;9.20;99.90
1626;DHT22;806;48.770;9.156;2023-04-25T02:50:55;9.40;99.90
1626;DHT22;806;48.770;9.156;2023-04-25T02:53:22;9.40;99.90
1626;DHT22;806;48.770;9.156;2023-04-25T02:55:49;9.40;99.90
1626;DHT22;806;48.770;9.156;2023-04-25T02:58:18;9.30;99.90
1626;DHT22;806;48.770;9.156;2023-04-25T03:00:45;9.20;99.90
1626;DHT22;806;48.770;9.156;2023-04-25T03:03:12;9.10;99.90
1626;DHT22;806;48.770;9.156;2023-04-25T03:05:40;9.10;99.90
1626;DHT22;806;48.770;9.156;2023-04-25T03:08:07;9.10;99.90
1626;DHT22;806;48.770;9.156;2023-04-25T03:10:34;9.10;99.90
1626;DHT22;806;48.770;9.156;2023-04-25T03:13:01;9.00;99.90
1626;DHT22;806;48.770;9.156;2023-04-25T03:15:28;9.10;99.90
1626;DHT22;806;48.770;9.156;2023-04-25T03:17:57;9.10;99.90
1626;DHT22;806;48.770;9.156;2023-04-25T03:20:24;9.20;99.90
1626;DHT22;806;48.770;9.156;2023-04-25T03:22:52;9.40;99.90
1626;DHT22;806;48.770;9.156;2023-04-25T03:25:19;9.40;99.90
1626;DHT22;806;48.770;9.156;2023-04-25T03:27:46;9.50;99.90
1626;DHT22;806;48.770;9.156;2023-04-25T03:30:13;9.40;99.90
1626;DHT22;806;48.770;9.156;2023-04-25T03:32:40;9.40;99.90
1626;DHT22;806;48.770;9.156;2023-04-25T03:35:08;9.30;99.90
1626;DHT22;806;48.770;9.156;2023-04-25T03:37:35;9.30;99.90
1626;DHT22;806;48.770;9.156;2023-04-25T03:40:05;9.10;99.90
1626;DHT22;806;48.770;9.156;2023-04-25T03:42:32;9.10;99.90
1626;DHT22;806;48.770;9.156;2023-04-25T03:44:59;9.10;99.90
1626;DHT22;806;48.770;9.156;2023-04-25T03:47:26;9.00;99.90
1626;DHT22;806;48.770;9.156;2023-04-25T03:49:53;8.90;99.90
1626;DHT22;806;48.770;9.156;2023-04-25T03:52:20;8.90;99.90
1626;DHT22;806;48.770;9.156;2023-04-25T03:54:47;8.90;99.90
1626;DHT22;806;48.770;9.156;2023-04-25T03:57:15;8.90;99.90
1626;DHT22;806;48.770;9.156;2023-04-25T03:59:42;8.90;99.90
1626;DHT22;806;48.770;9.156;2023-04-25T04:02:10;8.90;99.90
1626;DHT22;806;48.770;9.156;2023-04-25T04:04:37;8.90;99.90
1626;DHT22;806;48.770;9.156;2023-04-25T04:07:04;8.90;99.90
1626;DHT22;806;48.770;9.156;2023-04-25T04:09:31;8.90;99.90
1626;DHT22;806;48.770;9.156;2023-04-25T04:11:58;8.90;99.90
1626;DHT22;806;48.770;9.156;2023-04-25T04:14:28;8.90;99.90
1626;DHT22;806;48.770;9.156;2023-04-25T04:16:55;8.90;99.90
1626;DHT22;806;48.770;9.156;2023-04-25T04:19:22;8.90;99.90
1626;DHT22;806;48.770;9.156;2023-04-25T04:21:49;9.00;99.90
1626;DHT22;806;48.770;9.156;2023-04-25T04:24:16;9.00;99.90
1626;DHT22;806;48.770;9.156;2023-04-25T04:26:43;9.20;99.90
1626;DHT22;806;48.770;9.156;2023-04-25T04:29:11;9.40;99.90
1626;DHT22;806;48.770;9.156;2023-04-25T04:31:47;9.30;99.90
1626;DHT22;806;48.770;9.156;2023-04-25T04:34:15;9.20;99.90
1626;DHT22;806;48.770;9.156;2023-04-25T04:36:43;9.10;99.90
1626;DHT22;806;48.770;9.156;2023-04-25T04:39:11;8.90;99.90
1626;DHT22;806;48.770;9.156;2023-04-25T04:41:38;8.80;99.90
1626;DHT22;806;48.770;9.156;2023-04-25T04:44:06;8.80;99.90
1626;DHT22;806;48.770;9.156;2023-04-25T04:46:34;8.80;99.90
1626;DHT22;806;48.770;9.156;2023-04-25T04:49:07;8.80;99.90
1626;DHT22;806;48.770;9.156;2023-04-25T04:51:34;8.80;99.90
1626;DHT22;806;48.770;9.156;2023-04-25T04:54:02;8.80;99.90
1626;DHT22;806;48.770;9.156;2023-04-25T04:56:29;8.90;99.90
1626;DHT22;806;48.770;9.156;2023-04-25T04:58:57;8.90;99.90
1626;DHT22;806;48.770;9.156;2023-04-25T05:01:25;9.10;99.90
1626;DHT22;806;48.770;9.156;2023-04-25T05:03:52;9.20;99.90
1626;DHT22;806;48.770;9.156;2023-04-25T05:06:20;9.30;99.90
1626;DHT22;806;48.770;9.156;2023-04-25T05:08:47;9.40;99.90
1626;DHT22;806;48.770;9.156;2023-04-25T05:11:15;9.40;99.90
1626;DHT22;806;48.770;9.156;2023-04-25T05:13:42;9.80;99.90
1626;DHT22;806;48.770;9.156;2023-04-25T05:16:09;10.10;99.90
1626;DHT22;806;48.770;9.156;2023-04-25T05:18:36;9.90;99.90
1626;DHT22;806;48.770;9.156;2023-04-25T05:21:04;9.70;99.90
1626;DHT22;806;48.770;9.156;2023-04-25T05:23:33;9.50;99.90
1626;DHT22;806;48.770;9.156;2023-04-25T05:26:00;9.50;99.90
1626;DHT22;806;48.770;9.156;2023-04-25T05:28:27;10.00;99.90
1626;DHT22;806;48.770;9.156;2023-04-25T05:30:54;10.00;99.90
1626;DHT22;806;48.770;9.156;2023-04-25T05:33:21;10.00;99.90
1626;DHT22;806;48.770;9.156;2023-04-25T05:35:48;10.00;99.90
1626;DHT22;806;48.770;9.156;2023-04-25T05:38:15;9.90;99.90
1626;DHT22;806;48.770;9.156;2023-04-25T05:40:44;10.30;99.90
1626;DHT22;806;48.770;9.156;2023-04-25T05:43:11;10.30;99.90
1626;DHT22;806;48.770;9.156;2023-04-25T05:45:38;10.10;99.90
1626;DHT22;806;48.770;9.156;2023-04-25T05:48:05;10.00;99.90
1626;DHT22;806;48.770;9.156;2023-04-25T05:50:32;10.10;99.90
1626;DHT22;806;48.770;9.156;2023-04-25T05:52:59;10.10;99.90
1626;DHT22;806;48.770;9.156;2023-04-25T05:55:26;10.20;99.90
1626;DHT22;806;48.770;9.156;2023-04-25T05:57:55;10.20;99.90
1626;DHT22;806;48.770;9.156;2023-04-25T06:00:22;10.30;99.90
1626;DHT22;806;48.770;9.156;2023-04-25T06:02:49;10.10;99.90
1626;DHT22;806;48.770;9.156;2023-04-25T06:05:16;10.20;99.90
1626;DHT22;806;48.770;9.156;2023-04-25T06:07:43;10.00;99.90
1626;DHT22;806;48.770;9.156;2023-04-25T06:10:10;10.00;99.90
1626;DHT22;806;48.770;9.156;2023-04-25T06:12:38;10.00;99.90
1626;DHT22;806;48.770;9.156;2023-04-25T06:15:07;9.80;99.90
1626;DHT22;806;48.770;9.156;2023-04-25T06:17:34;9.80;99.90
1626;DHT22;806;48.770;9.156;2023-04-25T06:20:01;10.00;99.90
1626;DHT22;806;48.770;9.156;2023-04-25T06:22:29;10.40;99.90
1626;DHT22;806;48.770;9.156;2023-04-25T06:24:56;10.60;99.90
1626;DHT22;806;48.770;9.156;2023-04-25T06:27:26;10.50;99.90
1626;DHT22;806;48.770;9.156;2023-04-25T06:29:53;10.20;99.90
1626;DHT22;806;48.770;9.156;2023-04-25T06:32:21;10.00;99.90
1626;DHT22;806;48.770;9.156;2023-04-25T06:34:48;10.00;99.90
1626;DHT22;806;48.770;9.156;2023-04-25T06:37:16;10.20;99.90
1626;DHT22;806;48.770;9.156;2023-04-25T06:39:43;10.30;99.90
1626;DHT22;806;48.770;9.156;2023-04-25T06:42:10;10.30;99.90
1626;DHT22;806;48.770;9.156;2023-04-25T06:44:37;10.10;99.90
1626;DHT22;806;48.770;9.156;2023-04-25T06:47:04;9.80;99.90
1626;DHT22;806;48.770;9.156;2023-04-25T06:49:33;9.50;99.90
1626;DHT22;806;48.770;9.156;2023-04-25T06:52:00;9.50;99.90
1626;DHT22;806;48.770;9.156;2023-04-25T06:54:27;9.40;99.90
1626;DHT22;806;48.770;9.156;2023-04-25T06:56:55;9.40;99.90
1626;DHT22;806;48.770;9.156;2023-04-25T06:59:22;9.50;99.90
1626;DHT22;806;48.770;9.156;2023-04-25T07:01:49;9.50;99.90
1626;DHT22;806;48.770;9.156;2023-04-25T07:04:16;9.50;99.90
1626;DHT22;806;48.770;9.156;2023-04-25T07:06:45;9.60;99.90
1626;DHT22;806;48.770;9.156;2023-04-25T07:09:13;9.70;99.90
1626;DHT22;806;48.770;9.156;2023-04-25T07:11:40;9.70;99.90
1626;DHT22;806;48.770;9.156;2023-04-25T07:14:07;9.90;99.90
1626;DHT22;806;48.770;9.156;2023-04-25T07:16:34;10.10;99.90
1626;DHT22;806;48.770;9.156;2023-04-25T07:19:01;9.90;99.90
1626;DHT22;806;48.770;9.156;2023-04-25T07:21:29;9.70;99.90
1626;DHT22;806;48.770;9.156;2023-04-25T07:23:58;9.70;99.90
1626;DHT22;806;48.770;9.156;2023-04-25T07:26:25;9.60;99.90
1626;DHT22;806;48.770;9.156;2023-04-25T07:28:52;9.40;99.90
1626;DHT22;806;48.770;9.156;2023-04-25T07:31:20;9.40;99.90
1626;DHT22;806;48.770;9.156;2023-04-25T07:33:48;9.40;99.90
1626;DHT22;806;48.770;9.156;2023-04-25T07:36:15;9.40;99.90
1626;DHT22;806;48.770;9.156;2023-04-25T07:38:42;9.30;99.90
1626;DHT22;806;48.770;9.156;2023-04-25T07:41:10;9.30;99.90
1626;DHT22;806;48.770;9.156;2023-04-25T07:43:37;9.70;99.90
1626;DHT22;806;48.770;9.156;2023-04-25T07:46:04;10.00;99.90
1626;DHT22;806;48.770;9.156;2023-04-25T07:48:31;10.00;99.90
1626;DHT22;806;48.770;9.156;2023-04-25T07:50:58;10.20;99.90
1626;DHT22;806;48.770;9.156;2023-04-25T07:53:25;9.80;99.90
1626;DHT22;806;48.770;9.156;2023-04-25T07:55:52;9.70;99.90
1626;DHT22;806;48.770;9.156;2023-04-25T07:58:21;9.70;99.90
1626;DHT22;806;48.770;9.156;2023-04-25T08:00:48;9.60;99.90
1626;DHT22;806;48.770;9.156;2023-04-25T08:03:15;9.60;99.90
1626;DHT22;806;48.770;9.156;2023-04-25T08:05:43;9.60;99.90
1626;DHT22;806;48.770;9.156;2023-04-25T08:08:11;10.00;99.90
1626;DHT22;806;48.770;9.156;2023-04-25T08:10:38;10.20;99.90
1626;DHT22;806;48.770;9.156;2023-04-25T08:13:06;10.40;99.90
1626;DHT22;806;48.770;9.156;2023-04-25T08:15:34;10.10;99.90
1626;DHT22;806;48.770;9.156;2023-04-25T08:18:01;9.80;99.90
1626;DHT22;806;48.770;9.156;2023-04-25T08:20:28;10.20;99.90
1626;DHT22;806;48.770;9.156;2023-04-25T08:22:56;9.90;99.90
1626;DHT22;806;48.770;9.156;2023-04-25T08:25:23;9.70;99.90
1626;DHT22;806;48.770;9.156;2023-04-25T08:27:50;9.40;99.90
1626;DHT22;806;48.770;9.156;2023-04-25T08:30:17;9.20;99.90
1626;DHT22;806;48.770;9.156;2023-04-25T08:32:46;9.00;99.90
1626;DHT22;806;48.770;9.156;2023-04-25T08:35:13;8.90;99.90
1626;DHT22;806;48.770;9.156;2023-04-25T08:37:40;9.00;99.90
1626;DHT22;806;48.770;9.156;2023-04-25T08:40:11;9.40;99.90
1626;DHT22;806;48.770;9.156;2023-04-25T08:42:40;9.40;99.90
1626;DHT22;806;48.770;9.156;2023-04-25T08:45:08;9.20;99.90
1626;DHT22;806;48.770;9.156;2023-04-25T08:47:37;9.10;99.90
1626;DHT22;806;48.770;9.156;2023-04-25T08:50:07;9.10;99.90
1626;DHT22;806;48.770;9.156;2023-04-25T08:52:36;9.20;99.90
1626;DHT22;806;48.770;9.156;2023-04-25T08:55:07;9.50;99.90
1626;DHT22;806;48.770;9.156;2023-04-25T08:57:37;9.70;99.90
1626;DHT22;806;48.770;9.156;2023-04-25T09:00:05;9.80;99.90
1626;DHT22;806;48.770;9.156;2023-04-25T09:02:33;9.70;99.90
1626;DHT22;806;48.770;9.156;2023-04-25T09:05:02;9.80;99.90
1626;DHT22;806;48.770;9.156;2023-04-25T09:07:31;9.70;99.90
1626;DHT22;806;48.770;9.156;2023-04-25T09:09:58;9.80;99.90
1626;DHT22;806;48.770;9.156;2023-04-25T09:12:29;9.60;99.90
1626;DHT22;806;48.770;9.156;2023-04-25T09:15:04;9.50;99.90
1626;DHT22;806;48.770;9.156;2023-04-25T09:17:32;9.40;99.90
1626;DHT22;806;48.770;9.156;2023-04-25T09:20:09;9.30;99.90
1626;DHT22;806;48.770;9.156;2023-04-25T09:22:38;9.30;99.90
1626;DHT22;806;48.770;9.156;2023-04-25T09:25:08;9.30;99.90
1626;DHT22;806;48.770;9.156;2023-04-25T09:27:36;9.30;99.90
1626;DHT22;806;48.770;9.156;2023-04-25T09:30:03;9.30;99.90
1626;DHT22;806;48.770;9.156;2023-04-25T09:32:31;9.10;99.90
1626;DHT22;806;48.770;9.156;2023-04-25T09:34:58;9.00;99.90
1626;DHT22;806;48.770;9.156;2023-04-25T09:37:26;9.10;99.90
1626;DHT22;806;48.770;9.156;2023-04-25T09:39:56;9.10;99.90
1626;DHT22;806;48.770;9.156;2023-04-25T09:42:25;9.40;99.90
1626;DHT22;806;48.770;9.156;2023-04-25T09:44:55;9.30;99.90
1626;DHT22;806;48.770;9.156;2023-04-25T09:47:23;9.10;99.90
1626;DHT22;806;48.770;9.156;2023-04-25T09:49:51;9.10;99.90
1626;DHT22;806;48.770;9.156;2023-04-25T09:52:20;9.10;99.90
1626;DHT22;806;48.770;9.156;2023-04-25T09:54:48;9.00;99.90
1626;DHT22;806;48.770;9.156;2023-04-25T09:57:18;9.10;99.90
1626;DHT22;806;48.770;9.156;2023-04-25T09:59:46;9.20;99.90
1626;DHT22;806;48.770;9.156;2023-04-25T10:02:15;9.40;99.90
1626;DHT22;806;48.770;9.156;2023-04-25T10:04:44;9.40;99.90
1626;DHT22;806;48.770;9.156;2023-04-25T10:07:14;9.30;99.90
1626;DHT22;806;48.770;9.156;2023-04-25T10:09:41;9.10;99.90
1626;DHT22;806;48.770;9.156;2023-04-25T10:12:11;9.00;99.90
1626;DHT22;806;48.770;9.156;2023-04-25T10:14:39;9.00;99.90
1626;DHT22;806;48.770;9.156;2023-04-25T10:17:08;9.10;99.90
1626;DHT22;806;48.770;9.156;2023-04-25T10:19:37;8.90;99.90
1626;DHT22;806;48.770;9.156;2023-04-25T10:22:07;9.00;99.90
1626;DHT22;806;48.770;9.156;2023-04-25T10:24:35;9.10;99.90
1626;DHT22;806;48.770;9.156;2023-04-25T10:27:03;8.90;99.90
1626;DHT22;806;48.770;9.156;2023-04-25T10:29:31;9.00;99.90
1626;DHT22;806;48.770;9.156;2023-04-25T10:31:59;9.20;99.90
1626;DHT22;806;48.770;9.156;2023-04-25T10:34:39;9.30;99.90
1626;DHT22;806;48.770;9.156;2023-04-25T10:37:09;9.30;99.90
1626;DHT22;806;48.770;9.156;2023-04-25T10:39:38;9.10;99.90
1626;DHT22;806;48.770;9.156;2023-04-25T10:42:06;9.20;99.90
1626;DHT22;806;48.770;9.156;2023-04-25T10:44:34;8.90;99.90
1626;DHT22;806;48.770;9.156;2023-04-25T10:47:02;8.70;99.90
1626;DHT22;806;48.770;9.156;2023-04-25T10:49:32;8.40;99.90
1626;DHT22;806;48.770;9.156;2023-04-25T10:52:27;8.30;99.90
1626;DHT22;806;48.770;9.156;2023-04-25T10:54:56;8.40;99.90
1626;DHT22;806;48.770;9.156;2023-04-25T10:57:37;8.80;99.90
1626;DHT22;806;48.770;9.156;2023-04-25T11:00:10;9.20;99.90
1626;DHT22;806;48.770;9.156;2023-04-25T11:02:41;9.20;99.90
1626;DHT22;806;48.770;9.156;2023-04-25T11:05:20;9.40;99.90
1626;DHT22;806;48.770;9.156;2023-04-25T11:07:50;9.50;99.90
1626;DHT22;806;48.770;9.156;2023-04-25T11:10:18;9.80;99.90
1626;DHT22;806;48.770;9.156;2023-04-25T11:12:47;10.00;99.90
1626;DHT22;806;48.770;9.156;2023-04-25T11:15:14;10.20;99.90
1626;DHT22;806;48.770;9.156;2023-04-25T11:17:42;10.00;99.90
1626;DHT22;806;48.770;9.156;2023-04-25T11:20:12;10.00;99.90
1626;DHT22;806;48.770;9.156;2023-04-25T11:22:41;10.10;99.90
1626;DHT22;806;48.770;9.156;2023-04-25T11:25:10;10.20;99.90
1626;DHT22;806;48.770;9.156;2023-04-25T11:27:49;10.10;99.90
1626;DHT22;806;48.770;9.156;2023-04-25T11:30:17;10.20;99.90
1626;DHT22;806;48.770;9.156;2023-04-25T11:32:47;10.30;99.90
1626;DHT22;806;48.770;9.156;2023-04-25T11:35:14;10.10;99.90
1626;DHT22;806;48.770;9.156;2023-04-25T11:37:42;9.50;99.90
1626;DHT22;806;48.770;9.156;2023-04-25T11:40:10;9.60;99.90
1626;DHT22;806;48.770;9.156;2023-04-25T11:42:37;9.90;99.90
1626;DHT22;806;48.770;9.156;2023-04-25T11:45:06;10.10;99.90
1626;DHT22;806;48.770;9.156;2023-04-25T11:47:33;10.00;99.90
1626;DHT22;806;48.770;9.156;2023-04-25T11:50:04;9.50;99.90
1626;DHT22;806;48.770;9.156;2023-04-25T11:52:38;9.40;99.90
1626;DHT22;806;48.770;9.156;2023-04-25T11:55:08;9.30;99.90
1626;DHT22;806;48.770;9.156;2023-04-25T11:57:35;9.20;99.90
1626;DHT22;806;48.770;9.156;2023-04-25T12:00:08;8.80;99.90
1626;DHT22;806;48.770;9.156;2023-04-25T12:02:40;8.80;99.90
1626;DHT22;806;48.770;9.156;2023-04-25T12:05:10;9.30;99.90
1626;DHT22;806;48.770;9.156;2023-04-25T12:07:37;9.10;99.90
1626;DHT22;806;48.770;9.156;2023-04-25T12:10:05;9.40;99.90
1626;DHT22;806;48.770;9.156;2023-04-25T12:12:34;9.60;99.90
1626;DHT22;806;48.770;9.156;2023-04-25T12:15:15;9.60;99.90
1626;DHT22;806;48.770;9.156;2023-04-25T12:17:45;9.70;99.90
1626;DHT22;806;48.770;9.156;2023-04-25T12:20:16;9.80;99.90
1626;DHT22;806;48.770;9.156;2023-04-25T12:22:45;9.20;99.90
1626;DHT22;806;48.770;9.156;2023-04-25T12:25:14;8.90;99.90
1626;DHT22;806;48.770;9.156;2023-04-25T12:28:10;8.80;99.90
1626;DHT22;806;48.770;9.156;2023-04-25T12:30:53;9.10;99.90
1626;DHT22;806;48.770;9.156;2023-04-25T12:33:20;9.20;99.90
1626;DHT22;806;48.770;9.156;2023-04-25T12:35:49;9.40;99.90
1626;DHT22;806;48.770;9.156;2023-04-25T12:38:21;9.40;99.90
1626;DHT22;806;48.770;9.156;2023-04-25T12:40:49;9.20;99.90
1626;DHT22;806;48.770;9.156;2023-04-25T12:43:16;9.10;99.90
1626;DHT22;806;48.770;9.156;2023-04-25T12:45:43;9.10;99.90
1626;DHT22;806;48.770;9.156;2023-04-25T12:48:10;9.20;99.90
1626;DHT22;806;48.770;9.156;2023-04-25T12:50:37;9.40;99.90
1626;DHT22;806;48.770;9.156;2023-04-25T12:53:06;9.60;99.90
1626;DHT22;806;48.770;9.156;2023-04-25T12:55:33;9.80;99.90
1626;DHT22;806;48.770;9.156;2023-04-25T12:58:00;9.80;99.90
1626;DHT22;806;48.770;9.156;2023-04-25T13:00:27;10.20;99.90
1626;DHT22;806;48.770;9.156;2023-04-25T13:02:54;10.30;99.90
1626;DHT22;806;48.770;9.156;2023-04-25T13:05:21;10.20;99.90
1626;DHT22;806;48.770;9.156;2023-04-25T13:07:49;10.10;99.90
1626;DHT22;806;48.770;9.156;2023-04-25T13:10:18;10.10;99.90
1626;DHT22;806;48.770;9.156;2023-04-25T13:12:45;10.40;99.90
1626;DHT22;806;48.770;9.156;2023-04-25T13:15:12;11.00;99.90
1626;DHT22;806;48.770;9.156;2023-04-25T13:17:41;11.40;99.90
1626;DHT22;806;48.770;9.156;2023-04-25T13:20:09;11.70;99.90
1626;DHT22;806;48.770;9.156;2023-04-25T13:22:38;11.70;99.90
1626;DHT22;806;48.770;9.156;2023-04-25T13:25:06;11.40;99.90
1626;DHT22;806;48.770;9.156;2023-04-25T13:27:35;11.10;99.90
1626;DHT22;806;48.770;9.156;2023-04-25T13:30:04;11.00;99.90
1626;DHT22;806;48.770;9.156;2023-04-25T13:32:33;11.30;99.90
1626;DHT22;806;48.770;9.156;2023-04-25T13:35:02;11.70;99.90
1626;DHT22;806;48.770;9.156;2023-04-25T13:37:30;11.70;99.90
1626;DHT22;806;48.770;9.156;2023-04-25T13:39:59;11.40;99.90
1626;DHT22;806;48.770;9.156;2023-04-25T13:42:29;10.90;99.90
1626;DHT22;806;48.770;9.156;2023-04-25T13:44:57;10.90;99.90
1626;DHT22;806;48.770;9.156;2023-04-25T13:47:25;11.00;99.90
1626;DHT22;806;48.770;9.156;2023-04-25T13:49:53;11.20;99.90
1626;DHT22;806;48.770;9.156;2023-04-25T13:52:20;11.30;99.90
1626;DHT22;806;48.770;9.156;2023-04-25T13:54:49;11.50;99.90
1626;DHT22;806;48.770;9.156;2023-04-25T13:57:17;11.80;99.90
1626;DHT22;806;48.770;9.156;2023-04-25T13:59:44;12.10;99.90
1626;DHT22;806;48.770;9.156;2023-04-25T14:02:13;11.70;99.90
1626;DHT22;806;48.770;9.156;2023-04-25T14:04:40;11.60;99.90
1626;DHT22;806;48.770;9.156;2023-04-25T14:07:07;11.40;99.90
1626;DHT22;806;48.770;9.156;2023-04-25T14:09:36;11.80;99.90
1626;DHT22;806;48.770;9.156;2023-04-25T14:12:03;12.10;99.90
1626;DHT22;806;48.770;9.156;2023-04-25T14:14:31;12.00;99.90
1626;DHT22;806;48.770;9.156;2023-04-25T14:16:58;12.20;99.90
1626;DHT22;806;48.770;9.156;2023-04-25T14:19:27;12.30;99.90
1626;DHT22;806;48.770;9.156;2023-04-25T14:21:54;12.70;99.90
1626;DHT22;806;48.770;9.156;2023-04-25T14:24:21;12.80;99.90
1626;DHT22;806;48.770;9.156;2023-04-25T14:26:48;12.60;99.90
1626;DHT22;806;48.770;9.156;2023-04-25T14:29:15;12.50;99.90
1626;DHT22;806;48.770;9.156;2023-04-25T14:31:43;12.40;99.90
1626;DHT22;806;48.770;9.156;2023-04-25T14:34:10;12.60;99.90
1626;DHT22;806;48.770;9.156;2023-04-25T14:36:39;12.80;99.90
1626;DHT22;806;48.770;9.156;2023-04-25T14:39:06;12.60;99.90
1626;DHT22;806;48.770;9.156;2023-04-25T14:41:33;12.60;99.90
1626;DHT22;806;48.770;9.156;2023-04-25T14:44:00;12.00;99.90
1626;DHT22;806;48.770;9.156;2023-04-25T14:46:27;12.20;99.90
1626;DHT22;806;48.770;9.156;2023-04-25T14:48:54;12.50;99.90
1626;DHT22;806;48.770;9.156;2023-04-25T14:51:21;12.60;99.90
1626;DHT22;806;48.770;9.156;2023-04-25T14:53:50;12.30;99.90
1626;DHT22;806;48.770;9.156;2023-04-25T14:56:17;12.00;99.90
1626;DHT22;806;48.770;9.156;2023-04-25T14:58:44;12.20;99.90
1626;DHT22;806;48.770;9.156;2023-04-25T15:01:12;12.50;99.90
1626;DHT22;806;48.770;9.156;2023-04-25T15:03:40;12.80;99.90
1626;DHT22;806;48.770;9.156;2023-04-25T15:06:07;13.20;99.90
1626;DHT22;806;48.770;9.156;2023-04-25T15:08:34;13.30;99.90
1626;DHT22;806;48.770;9.156;2023-04-25T15:11:03;13.40;99.90
1626;DHT22;806;48.770;9.156;2023-04-25T15:13:30;13.20;99.90
1626;DHT22;806;48.770;9.156;2023-04-25T15:15:57;13.10;99.90
1626;DHT22;806;48.770;9.156;2023-04-25T15:18:24;12.60;99.90
1626;DHT22;806;48.770;9.156;2023-04-25T15:20:52;12.50;99.90
1626;DHT22;806;48.770;9.156;2023-04-25T15:23:20;12.30;99.90
1626;DHT22;806;48.770;9.156;2023-04-25T15:25:47;12.30;99.90
1626;DHT22;806;48.770;9.156;2023-04-25T15:28:15;12.20;99.90
1626;DHT22;806;48.770;9.156;2023-04-25T15:30:43;12.10;99.90
1626;DHT22;806;48.770;9.156;2023-04-25T15:33:10;12.10;99.90
1626;DHT22;806;48.770;9.156;2023-04-25T15:35:37;12.40;99.90
1626;DHT22;806;48.770;9.156;2023-04-25T15:38:04;12.50;99.90
1626;DHT22;806;48.770;9.156;2023-04-25T15:40:31;12.30;99.90
1626;DHT22;806;48.770;9.156;2023-04-25T15:42:58;12.20;99.90
1626;DHT22;806;48.770;9.156;2023-04-25T15:45:27;12.00;99.90
1626;DHT22;806;48.770;9.156;2023-04-25T15:47:55;12.20;99.90
1626;DHT22;806;48.770;9.156;2023-04-25T15:50:23;12.50;99.90
1626;DHT22;806;48.770;9.156;2023-04-25T15:52:50;12.70;99.90
1626;DHT22;806;48.770;9.156;2023-04-25T15:55:18;12.80;99.90
1626;DHT22;806;48.770;9.156;2023-04-25T15:57:47;12.80;99.90
1626;DHT22;806;48.770;9.156;2023-04-25T16:00:16;12.90;99.90
1626;DHT22;806;48.770;9.156;2023-04-25T16:02:45;12.70;99.90
1626;DHT22;806;48.770;9.156;2023-04-25T16:05:13;12.80;99.90
1626;DHT22;806;48.770;9.156;2023-04-25T16:07:41;12.50;99.90
1626;DHT22;806;48.770;9.156;2023-04-25T16:10:09;12.40;99.90
1626;DHT22;806;48.770;9.156;2023-04-25T16:12:37;12.50;99.90
1626;DHT22;806;48.770;9.156;2023-04-25T16:15:05;12.60;99.90
1626;DHT22;806;48.770;9.156;2023-04-25T16:17:32;12.40;99.90
1626;DHT22;806;48.770;9.156;2023-04-25T16:20:01;12.40;99.90
1626;DHT22;806;48.770;9.156;2023-04-25T16:22:34;12.50;99.90
1626;DHT22;806;48.770;9.156;2023-04-25T16:25:02;12.70;99.90
1626;DHT22;806;48.770;9.156;2023-04-25T16:27:30;12.60;99.90
1626;DHT22;806;48.770;9.156;2023-04-25T16:29:59;12.30;99.90
1626;DHT22;806;48.770;9.156;2023-04-25T16:32:26;12.00;99.90
1626;DHT22;806;48.770;9.156;2023-04-25T16:34:53;12.00;99.90